sensor_id;sensor_type;location;lat;lon;timestamp;pressure;altitude;pressure_sealevel;temperature;humidity
62548;BME280;48602;45.192;5.722;2023-05-08T00:01:06;99556.84;;;16.52;79.17
62548;BME280;48602;45.192;5.722;2023-05-08T00:03:31;99555.84;;;16.54;78.94
62548;BME280;48602;45.192;5.722;2023-05-08T00:05:57;99557.63;;;16.54;78.76
62548;BME280;48602;45.192;5.722;2023-05-08T00:08:22;99547.94;;;16.53;78.68
62548;BME280;48602;45.192;5.722;2023-05-08T00:10:47;99546.97;;;16.54;79.35
62548;BME280;48602;45.192;5.722;2023-05-08T00:13:13;99549.66;;;16.54;78.53
62548;BME280;48602;45.192;5.722;2023-05-08T00:15:38;99542.78;;;16.50;78.63
62548;BME280;48602;45.192;5.722;2023-05-08T00:18:04;99544.50;;;16.51;78.70
62548;BME280;48602;45.192;5.722;2023-05-08T00:20:29;99544.41;;;16.52;78.89
62548;BME280;48602;45.192;5.722;2023-05-08T00:22:55;99537.28;;;16.53;78.67
62548;BME280;48602;45.192;5.722;2023-05-08T00:25:22;99536.34;;;16.54;78.61
62548;BME280;48602;45.192;5.722;2023-05-08T00:27:47;99540.63;;;16.56;78.67
62548;BME280;48602;45.192;5.722;2023-05-08T00:30:13;99539.78;;;16.56;78.64
62548;BME280;48602;45.192;5.722;2023-05-08T00:32:38;99544.81;;;16.60;78.83
62548;BME280;48602;45.192;5.722;2023-05-08T00:35:04;99543.88;;;16.61;78.78
62548;BME280;48602;45.192;5.722;2023-05-08T00:37:29;99538.75;;;16.58;78.54
62548;BME280;48602;45.192;5.722;2023-05-08T00:39:55;99541.41;;;16.58;78.44
62548;BME280;48602;45.192;5.722;2023-05-08T00:42:20;99537.13;;;16.56;78.67
62548;BME280;48602;45.192;5.722;2023-05-08T00:44:46;99536.25;;;16.55;78.78
62548;BME280;48602;45.192;5.722;2023-05-08T00:47:12;99532.72;;;16.55;78.79
62548;BME280;48602;45.192;5.722;2023-05-08T00:49:37;99525.69;;;16.54;79.00
62548;BME280;48602;45.192;5.722;2023-05-08T00:52:04;99523.19;;;16.51;79.20
62548;BME280;48602;45.192;5.722;2023-05-08T00:54:33;99526.81;;;16.50;79.50
62548;BME280;48602;45.192;5.722;2023-05-08T00:56:59;99532.03;;;16.51;79.78
62548;BME280;48602;45.192;5.722;2023-05-08T00:59:25;99526.81;;;16.50;80.14
62548;BME280;48602;45.192;5.722;2023-05-08T01:01:51;99530.41;;;16.49;80.11
62548;BME280;48602;45.192;5.722;2023-05-08T01:04:20;99526.91;;;16.48;79.65
62548;BME280;48602;45.192;5.722;2023-05-08T01:06:48;99523.63;;;16.43;79.42
62548;BME280;48602;45.192;5.722;2023-05-08T01:09:14;99522.28;;;16.36;79.74
62548;BME280;48602;45.192;5.722;2023-05-08T01:11:44;99528.56;;;16.35;79.77
62548;BME280;48602;45.192;5.722;2023-05-08T01:14:45;99530.34;;;16.34;79.75
62548;BME280;48602;45.192;5.722;2023-05-08T01:17:16;99534.91;;;16.32;79.86
62548;BME280;48602;45.192;5.722;2023-05-08T01:30:06;99532.31;;;16.31;80.16
62548;BME280;48602;45.192;5.722;2023-05-08T01:32:40;99523.66;;;16.27;79.98
62548;BME280;48602;45.192;5.722;2023-05-08T01:38:07;99532.56;;;16.26;80.03
62548;BME280;48602;45.192;5.722;2023-05-08T01:40:51;99530.59;;;16.30;79.72
62548;BME280;48602;45.192;5.722;2023-05-08T01:45:45;99529.91;;;16.26;80.12
62548;BME280;48602;45.192;5.722;2023-05-08T01:48:16;99534.56;;;16.23;80.47
62548;BME280;48602;45.192;5.722;2023-05-08T01:50:46;99533.63;;;16.24;80.89
62548;BME280;48602;45.192;5.722;2023-05-08T01:53:32;99525.81;;;16.21;80.78
62548;BME280;48602;45.192;5.722;2023-05-08T01:56:02;99522.38;;;16.19;81.08
62548;BME280;48602;45.192;5.722;2023-05-08T01:58:31;99517.16;;;16.17;81.28
62548;BME280;48602;45.192;5.722;2023-05-08T02:00:58;99521.53;;;16.18;81.21
62548;BME280;48602;45.192;5.722;2023-05-08T02:03:26;99523.16;;;16.21;81.46
62548;BME280;48602;45.192;5.722;2023-05-08T02:05:54;99518.00;;;16.18;81.46
62548;BME280;48602;45.192;5.722;2023-05-08T02:08:23;99529.69;;;16.15;81.26
62548;BME280;48602;45.192;5.722;2023-05-08T02:10:50;99519.38;;;16.09;80.93
62548;BME280;48602;45.192;5.722;2023-05-08T02:13:18;99519.56;;;16.06;80.87
62548;BME280;48602;45.192;5.722;2023-05-08T02:15:47;99521.53;;;16.02;81.20
62548;BME280;48602;45.192;5.722;2023-05-08T02:18:14;99520.16;;;15.95;81.37
62548;BME280;48602;45.192;5.722;2023-05-08T02:20:40;99526.59;;;15.91;81.34
62548;BME280;48602;45.192;5.722;2023-05-08T02:23:06;99524.09;;;15.88;81.85
62548;BME280;48602;45.192;5.722;2023-05-08T02:25:34;99519.81;;;15.86;82.03
62548;BME280;48602;45.192;5.722;2023-05-08T02:28:01;99524.97;;;15.89;81.80
62548;BME280;48602;45.192;5.722;2023-05-08T02:30:27;99517.94;;;15.88;81.89
62548;BME280;48602;45.192;5.722;2023-05-08T02:32:54;99519.56;;;15.90;81.86
62548;BME280;48602;45.192;5.722;2023-05-08T02:35:23;99524.81;;;15.92;81.76
62548;BME280;48602;45.192;5.722;2023-05-08T02:37:52;99522.88;;;15.94;82.08
62548;BME280;48602;45.192;5.722;2023-05-08T02:40:19;99525.47;;;15.95;82.16
62548;BME280;48602;45.192;5.722;2023-05-08T02:42:46;99529.25;;;15.91;81.94
62548;BME280;48602;45.192;5.722;2023-05-08T02:45:12;99518.94;;;15.85;82.26
62548;BME280;48602;45.192;5.722;2023-05-08T02:47:45;99518.09;;;15.85;82.50
62548;BME280;48602;45.192;5.722;2023-05-08T02:50:41;99510.19;;;15.83;82.10
62548;BME280;48602;45.192;5.722;2023-05-08T02:53:14;99517.22;;;15.84;81.62
62548;BME280;48602;45.192;5.722;2023-05-08T02:55:48;99517.22;;;15.84;81.21
62548;BME280;48602;45.192;5.722;2023-05-08T02:58:36;99513.72;;;15.84;81.63
62548;BME280;48602;45.192;5.722;2023-05-08T03:01:11;99515.44;;;15.85;81.22
62548;BME280;48602;45.192;5.722;2023-05-08T03:03:41;99511.84;;;15.86;81.61
62548;BME280;48602;45.192;5.722;2023-05-08T03:06:11;99516.22;;;15.87;81.39
62548;BME280;48602;45.192;5.722;2023-05-08T03:08:39;99515.28;;;15.88;81.76
62548;BME280;48602;45.192;5.722;2023-05-08T03:11:09;99514.25;;;15.90;81.28
62548;BME280;48602;45.192;5.722;2023-05-08T03:13:38;99510.66;;;15.91;81.44
62548;BME280;48602;45.192;5.722;2023-05-08T03:16:10;99510.53;;;15.93;80.96
62548;BME280;48602;45.192;5.722;2023-05-08T03:18:44;99508.72;;;15.93;81.22
62548;BME280;48602;45.192;5.722;2023-05-08T03:21:12;99507.88;;;15.93;81.07
62548;BME280;48602;45.192;5.722;2023-05-08T03:23:41;99503.53;;;15.92;81.32
62548;BME280;48602;45.192;5.722;2023-05-08T03:26:07;99504.56;;;15.89;81.17
62548;BME280;48602;45.192;5.722;2023-05-08T03:28:35;99507.00;;;15.92;81.09
62548;BME280;48602;45.192;5.722;2023-05-08T03:31:03;99502.75;;;15.90;81.12
62548;BME280;48602;45.192;5.722;2023-05-08T03:33:29;99507.13;;;15.91;81.38
62548;BME280;48602;45.192;5.722;2023-05-08T03:35:56;99502.84;;;15.88;81.54
62548;BME280;48602;45.192;5.722;2023-05-08T03:38:22;99492.19;;;15.88;81.17
62548;BME280;48602;45.192;5.722;2023-05-08T03:40:48;99502.66;;;15.91;80.91
62548;BME280;48602;45.192;5.722;2023-05-08T03:43:15;99499.22;;;15.89;81.29
62548;BME280;48602;45.192;5.722;2023-05-08T03:45:41;99501.91;;;15.89;81.05
62548;BME280;48602;45.192;5.722;2023-05-08T03:48:08;99504.56;;;15.89;81.07
62548;BME280;48602;45.192;5.722;2023-05-08T03:50:36;99507.13;;;15.91;81.03
62548;BME280;48602;45.192;5.722;2023-05-08T03:53:02;99509.78;;;15.91;81.33
62548;BME280;48602;45.192;5.722;2023-05-08T03:55:29;99507.88;;;15.93;80.95
62548;BME280;48602;45.192;5.722;2023-05-08T03:58:00;99510.53;;;15.93;81.58
62548;BME280;48602;45.192;5.722;2023-05-08T04:00:58;99512.25;;;15.94;81.26
62548;BME280;48602;45.192;5.722;2023-05-08T04:05:58;99513.88;;;15.96;81.33
62548;BME280;48602;45.192;5.722;2023-05-08T04:08:28;99512.94;;;15.97;80.79
62548;BME280;48602;45.192;5.722;2023-05-08T04:11:03;99507.63;;;15.97;80.54
62548;BME280;48602;45.192;5.722;2023-05-08T04:13:31;99509.44;;;15.97;80.40
62548;BME280;48602;45.192;5.722;2023-05-08T04:16:23;99507.63;;;15.97;80.11
62548;BME280;48602;45.192;5.722;2023-05-08T04:18:57;99512.16;;;15.95;79.90
62548;BME280;48602;45.192;5.722;2023-05-08T04:21:28;99521.94;;;15.95;80.38
62548;BME280;48602;45.192;5.722;2023-05-08T04:23:56;99522.81;;;15.95;80.14
62548;BME280;48602;45.192;5.722;2023-05-08T04:26:22;99515.78;;;15.94;80.19
62548;BME280;48602;45.192;5.722;2023-05-08T04:28:48;99515.69;;;15.96;79.85
62548;BME280;48602;45.192;5.722;2023-05-08T04:31:15;99517.31;;;15.98;80.07
62548;BME280;48602;45.192;5.722;2023-05-08T04:33:44;99518.97;;;16.01;79.52
62548;BME280;48602;45.192;5.722;2023-05-08T04:36:13;99518.00;;;16.02;79.75
62548;BME280;48602;45.192;5.722;2023-05-08T04:38:39;99514.50;;;16.01;79.83
62548;BME280;48602;45.192;5.722;2023-05-08T04:41:05;99517.06;;;16.03;79.42
62548;BME280;48602;45.192;5.722;2023-05-08T04:43:31;99511.75;;;16.03;79.46
62548;BME280;48602;45.192;5.722;2023-05-08T04:45:57;99520.44;;;16.07;79.11
62548;BME280;48602;45.192;5.722;2023-05-08T04:48:22;99507.28;;;16.03;79.02
62548;BME280;48602;45.192;5.722;2023-05-08T04:50:49;99514.03;;;16.09;78.94
62548;BME280;48602;45.192;5.722;2023-05-08T04:53:14;99522.63;;;16.14;78.87
62548;BME280;48602;45.192;5.722;2023-05-08T04:55:40;99523.31;;;16.18;79.01
62548;BME280;48602;45.192;5.722;2023-05-08T04:58:06;99517.94;;;16.19;78.71
62548;BME280;48602;45.192;5.722;2023-05-08T05:00:32;99514.25;;;16.22;78.57
62548;BME280;48602;45.192;5.722;2023-05-08T05:02:58;99520.34;;;16.24;78.54
62548;BME280;48602;45.192;5.722;2023-05-08T05:05:23;99512.34;;;16.24;78.66
62548;BME280;48602;45.192;5.722;2023-05-08T05:07:48;99514.16;;;16.23;78.64
62548;BME280;48602;45.192;5.722;2023-05-08T05:10:14;99524.59;;;16.26;78.45
62548;BME280;48602;45.192;5.722;2023-05-08T05:12:39;99521.00;;;16.27;78.40
62548;BME280;48602;45.192;5.722;2023-05-08T05:15:05;99531.47;;;16.30;77.97
62548;BME280;48602;45.192;5.722;2023-05-08T05:17:31;99531.38;;;16.32;78.21
62548;BME280;48602;45.192;5.722;2023-05-08T05:19:57;99532.16;;;16.34;78.08
62548;BME280;48602;45.192;5.722;2023-05-08T05:22:24;99533.88;;;16.35;78.07
62548;BME280;48602;45.192;5.722;2023-05-08T05:24:49;99525.81;;;16.36;78.00
62548;BME280;48602;45.192;5.722;2023-05-08T05:27:15;99534.41;;;16.42;77.96
62548;BME280;48602;45.192;5.722;2023-05-08T05:29:41;99528.00;;;16.44;77.45
62548;BME280;48602;45.192;5.722;2023-05-08T05:32:07;99536.59;;;16.49;77.71
62548;BME280;48602;45.192;5.722;2023-05-08T05:34:34;99535.56;;;16.52;77.55
62548;BME280;48602;45.192;5.722;2023-05-08T05:37:00;99545.09;;;16.56;77.48
62548;BME280;48602;45.192;5.722;2023-05-08T05:39:25;99551.78;;;16.63;77.12
62548;BME280;48602;45.192;5.722;2023-05-08T05:41:50;99546.03;;;16.70;77.28
62548;BME280;48602;45.192;5.722;2023-05-08T05:44:16;99544.28;;;16.85;77.12
62548;BME280;48602;45.192;5.722;2023-05-08T05:46:42;99551.63;;;16.96;76.51
62548;BME280;48602;45.192;5.722;2023-05-08T05:49:07;99552.91;;;17.04;75.95
62548;BME280;48602;45.192;5.722;2023-05-08T05:51:33;99555.84;;;17.14;76.17
62548;BME280;48602;45.192;5.722;2023-05-08T05:53:58;99551.03;;;17.21;75.36
62548;BME280;48602;45.192;5.722;2023-05-08T05:56:24;99555.88;;;17.28;75.42
62548;BME280;48602;45.192;5.722;2023-05-08T05:58:49;99556.38;;;17.35;75.21
62548;BME280;48602;45.192;5.722;2023-05-08T06:01:14;99549.06;;;17.38;74.69
62548;BME280;48602;45.192;5.722;2023-05-08T06:03:40;99558.47;;;17.44;74.44
62548;BME280;48602;45.192;5.722;2023-05-08T06:06:05;99564.38;;;17.49;74.15
62548;BME280;48602;45.192;5.722;2023-05-08T06:08:31;99557.81;;;17.55;73.77
62548;BME280;48602;45.192;5.722;2023-05-08T06:10:56;99561.91;;;17.60;73.82
62548;BME280;48602;45.192;5.722;2023-05-08T06:13:22;99567.84;;;17.65;73.59
62548;BME280;48602;45.192;5.722;2023-05-08T06:15:48;99569.38;;;17.69;73.19
62548;BME280;48602;45.192;5.722;2023-05-08T06:18:14;99570.91;;;17.73;73.24
62548;BME280;48602;45.192;5.722;2023-05-08T06:20:41;99559.00;;;17.79;73.10
62548;BME280;48602;45.192;5.722;2023-05-08T06:23:06;99564.91;;;17.84;73.20
62548;BME280;48602;45.192;5.722;2023-05-08T06:25:31;99562.72;;;17.91;72.50
62548;BME280;48602;45.192;5.722;2023-05-08T06:27:57;99560.81;;;17.93;72.62
62548;BME280;48602;45.192;5.722;2023-05-08T06:30:22;99559.81;;;17.94;72.28
62548;BME280;48602;45.192;5.722;2023-05-08T06:32:47;99557.84;;;17.97;72.00
62548;BME280;48602;45.192;5.722;2023-05-08T06:35:13;99554.13;;;18.00;72.27
62548;BME280;48602;45.192;5.722;2023-05-08T06:37:52;99553.84;;;18.04;71.51
62548;BME280;48602;45.192;5.722;2023-05-08T06:40:17;99554.69;;;18.05;71.92
62548;BME280;48602;45.192;5.722;2023-05-08T06:42:43;99552.69;;;18.08;71.82
62548;BME280;48602;45.192;5.722;2023-05-08T06:45:09;99539.03;;;18.13;72.09
62548;BME280;48602;45.192;5.722;2023-05-08T06:47:34;99539.78;;;18.15;71.48
62548;BME280;48602;45.192;5.722;2023-05-08T06:50:00;99539.50;;;18.20;71.67
62548;BME280;48602;45.192;5.722;2023-05-08T06:52:25;99542.66;;;18.26;71.96
62548;BME280;48602;45.192;5.722;2023-05-08T06:54:51;99535.28;;;18.30;71.77
62548;BME280;48602;45.192;5.722;2023-05-08T06:57:16;99540.50;;;18.31;71.21
62548;BME280;48602;45.192;5.722;2023-05-08T06:59:42;99544.81;;;18.34;71.40
62548;BME280;48602;45.192;5.722;2023-05-08T07:02:07;99545.47;;;18.37;71.41
62548;BME280;48602;45.192;5.722;2023-05-08T07:04:34;99545.16;;;18.42;71.42
62548;BME280;48602;45.192;5.722;2023-05-08T07:06:59;99534.16;;;18.46;70.86
62548;BME280;48602;45.192;5.722;2023-05-08T07:09:25;99548.28;;;18.48;70.97
62548;BME280;48602;45.192;5.722;2023-05-08T07:11:50;99550.94;;;18.48;71.09
62548;BME280;48602;45.192;5.722;2023-05-08T07:14:16;99549.13;;;18.49;70.73
62548;BME280;48602;45.192;5.722;2023-05-08T07:16:41;99548.38;;;18.47;71.06
62548;BME280;48602;45.192;5.722;2023-05-08T07:19:06;99539.41;;;18.48;71.27
62548;BME280;48602;45.192;5.722;2023-05-08T07:21:32;99545.81;;;18.45;70.52
62548;BME280;48602;45.192;5.722;2023-05-08T07:23:57;99542.59;;;18.40;71.33
62548;BME280;48602;45.192;5.722;2023-05-08T07:26:22;99537.25;;;18.40;71.13
62548;BME280;48602;45.192;5.722;2023-05-08T07:28:48;99546.03;;;18.42;71.26
62548;BME280;48602;45.192;5.722;2023-05-08T07:31:15;99533.31;;;18.46;71.38
62548;BME280;48602;45.192;5.722;2023-05-08T07:33:40;99539.31;;;18.49;71.24
62548;BME280;48602;45.192;5.722;2023-05-08T07:36:06;99539.97;;;18.53;70.95
62548;BME280;48602;45.192;5.722;2023-05-08T07:38:31;99538.81;;;18.57;70.88
62548;BME280;48602;45.192;5.722;2023-05-08T07:40:57;99539.63;;;18.59;71.21
62548;BME280;48602;45.192;5.722;2023-05-08T07:43:23;99533.94;;;18.64;70.62
62548;BME280;48602;45.192;5.722;2023-05-08T07:45:49;99531.72;;;18.70;70.99
62548;BME280;48602;45.192;5.722;2023-05-08T07:48:15;99533.16;;;18.76;70.43
62548;BME280;48602;45.192;5.722;2023-05-08T07:50:40;99538.16;;;18.80;70.27
62548;BME280;48602;45.192;5.722;2023-05-08T07:53:05;99536.91;;;18.86;70.01
62548;BME280;48602;45.192;5.722;2023-05-08T07:55:31;99532.31;;;18.88;69.97
62548;BME280;48602;45.192;5.722;2023-05-08T07:57:56;99534.69;;;18.93;69.26
62548;BME280;48602;45.192;5.722;2023-05-08T08:00:23;99536.59;;;18.91;69.05
62548;BME280;48602;45.192;5.722;2023-05-08T08:02:48;99533.91;;;18.91;68.19
62548;BME280;48602;45.192;5.722;2023-05-08T08:05:13;99531.56;;;18.86;67.93
62548;BME280;48602;45.192;5.722;2023-05-08T08:07:39;99536.13;;;18.84;67.70
62548;BME280;48602;45.192;5.722;2023-05-08T08:10:05;99534.53;;;18.81;67.79
62548;BME280;48602;45.192;5.722;2023-05-08T08:12:30;99528.31;;;18.81;68.54
62548;BME280;48602;45.192;5.722;2023-05-08T08:14:56;99526.41;;;18.83;68.15
62548;BME280;48602;45.192;5.722;2023-05-08T08:17:21;99529.75;;;18.87;68.67
62548;BME280;48602;45.192;5.722;2023-05-08T08:19:47;99528.69;;;18.89;68.41
62548;BME280;48602;45.192;5.722;2023-05-08T08:22:13;99529.63;;;18.88;68.44
62548;BME280;48602;45.192;5.722;2023-05-08T08:24:38;99526.41;;;18.83;68.58
62548;BME280;48602;45.192;5.722;2023-05-08T08:27:04;99526.72;;;18.78;68.13
62548;BME280;48602;45.192;5.722;2023-05-08T08:29:30;99523.63;;;18.72;68.80
62548;BME280;48602;45.192;5.722;2023-05-08T08:31:56;99519.88;;;18.74;68.41
62548;BME280;48602;45.192;5.722;2023-05-08T08:34:21;99515.50;;;18.73;67.79
62548;BME280;48602;45.192;5.722;2023-05-08T08:36:47;99526.38;;;18.70;68.35
62548;BME280;48602;45.192;5.722;2023-05-08T08:39:13;99525.63;;;18.68;68.16
62548;BME280;48602;45.192;5.722;2023-05-08T08:41:38;99519.13;;;18.72;68.62
62548;BME280;48602;45.192;5.722;2023-05-08T08:44:04;99517.75;;;18.79;68.71
62548;BME280;48602;45.192;5.722;2023-05-08T08:46:30;99514.25;;;18.92;67.13
62548;BME280;48602;45.192;5.722;2023-05-08T08:49:02;99510.28;;;18.97;66.29
62548;BME280;48602;45.192;5.722;2023-05-08T08:51:32;99515.13;;;19.05;67.04
62548;BME280;48602;45.192;5.722;2023-05-08T08:54:08;99507.22;;;19.16;67.24
62548;BME280;48602;45.192;5.722;2023-05-08T08:56:36;99522.84;;;19.35;65.89
62548;BME280;48602;45.192;5.722;2023-05-08T08:59:03;99514.06;;;19.45;65.70
62548;BME280;48602;45.192;5.722;2023-05-08T09:01:33;99516.78;;;19.58;64.14
62548;BME280;48602;45.192;5.722;2023-05-08T09:04:00;99510.34;;;19.61;63.95
62548;BME280;48602;45.192;5.722;2023-05-08T09:06:26;99516.53;;;19.61;63.27
62548;BME280;48602;45.192;5.722;2023-05-08T09:08:54;99514.00;;;19.60;63.50
62548;BME280;48602;45.192;5.722;2023-05-08T09:11:21;99518.16;;;19.51;63.50
62548;BME280;48602;45.192;5.722;2023-05-08T09:13:46;99516.44;;;19.50;64.04
62548;BME280;48602;45.192;5.722;2023-05-08T09:16:12;99517.09;;;19.54;63.65
62548;BME280;48602;45.192;5.722;2023-05-08T09:18:37;99527.03;;;19.51;63.62
62548;BME280;48602;45.192;5.722;2023-05-08T09:21:05;99524.47;;;19.50;63.45
62548;BME280;48602;45.192;5.722;2023-05-08T09:23:30;99528.06;;;19.49;63.62
62548;BME280;48602;45.192;5.722;2023-05-08T09:25:56;99531.72;;;19.48;63.12
62548;BME280;48602;45.192;5.722;2023-05-08T09:28:23;99543.56;;;19.44;63.59
62548;BME280;48602;45.192;5.722;2023-05-08T09:30:53;99536.75;;;19.40;63.48
62548;BME280;48602;45.192;5.722;2023-05-08T09:33:21;99532.47;;;19.37;63.64
62548;BME280;48602;45.192;5.722;2023-05-08T09:35:47;99536.97;;;19.37;63.56
62548;BME280;48602;45.192;5.722;2023-05-08T09:38:45;99543.28;;;19.36;63.83
62548;BME280;48602;45.192;5.722;2023-05-08T09:41:13;99542.31;;;19.37;63.65
62548;BME280;48602;45.192;5.722;2023-05-08T09:43:40;99540.91;;;19.31;64.30
62548;BME280;48602;45.192;5.722;2023-05-08T09:48:47;99553.00;;;19.24;64.08
62548;BME280;48602;45.192;5.722;2023-05-08T09:51:13;99557.59;;;19.22;64.08
62548;BME280;48602;45.192;5.722;2023-05-08T09:53:38;99555.97;;;19.20;64.31
62548;BME280;48602;45.192;5.722;2023-05-08T09:56:04;99550.63;;;19.20;64.71
62548;BME280;48602;45.192;5.722;2023-05-08T09:58:38;99552.16;;;19.24;64.53
62548;BME280;48602;45.192;5.722;2023-05-08T10:01:04;99563.16;;;19.32;64.04
62548;BME280;48602;45.192;5.722;2023-05-08T10:03:46;99540.59;;;19.36;64.58
62548;BME280;48602;45.192;5.722;2023-05-08T10:06:12;99556.22;;;19.42;64.08
62548;BME280;48602;45.192;5.722;2023-05-08T10:08:40;99547.09;;;19.44;63.78
62548;BME280;48602;45.192;5.722;2023-05-08T10:11:16;99554.75;;;19.50;63.45
62548;BME280;48602;45.192;5.722;2023-05-08T10:13:43;99543.94;;;19.52;63.08
62548;BME280;48602;45.192;5.722;2023-05-08T10:16:17;99566.84;;;19.56;62.96
62548;BME280;48602;45.192;5.722;2023-05-08T10:18:47;99548.78;;;19.60;62.96
62548;BME280;48602;45.192;5.722;2023-05-08T10:21:14;99540.59;;;19.61;62.83
62548;BME280;48602;45.192;5.722;2023-05-08T10:23:43;99553.56;;;19.67;62.62
62548;BME280;48602;45.192;5.722;2023-05-08T10:26:19;99545.97;;;19.74;62.58
62548;BME280;48602;45.192;5.722;2023-05-08T10:28:58;99562.22;;;19.83;62.60
62548;BME280;48602;45.192;5.722;2023-05-08T10:31:27;99542.84;;;19.93;62.29
62548;BME280;48602;45.192;5.722;2023-05-08T10:33:54;99540.56;;;19.99;61.90
62548;BME280;48602;45.192;5.722;2023-05-08T10:36:23;99553.41;;;20.07;60.86
62548;BME280;48602;45.192;5.722;2023-05-08T10:38:49;99545.78;;;20.13;61.28
62548;BME280;48602;45.192;5.722;2023-05-08T10:41:14;99554.97;;;20.22;60.83
62548;BME280;48602;45.192;5.722;2023-05-08T10:43:43;99539.19;;;20.30;60.09
62548;BME280;48602;45.192;5.722;2023-05-08T10:46:24;99540.28;;;20.40;59.81
62548;BME280;48602;45.192;5.722;2023-05-08T10:52:22;99561.00;;;20.49;58.81
62548;BME280;48602;45.192;5.722;2023-05-08T10:54:41;99524.69;;;20.45;59.57
62548;BME280;48602;45.192;5.722;2023-05-08T10:57:12;99540.16;;;20.42;59.33
62548;BME280;48602;45.192;5.722;2023-05-08T10:59:37;99525.28;;;20.38;59.30
62548;BME280;48602;45.192;5.722;2023-05-08T11:02:07;99538.56;;;20.39;59.46
62548;BME280;48602;45.192;5.722;2023-05-08T11:04:33;99534.28;;;20.37;59.06
62548;BME280;48602;45.192;5.722;2023-05-08T11:06:58;99539.81;;;20.34;59.41
62548;BME280;48602;45.192;5.722;2023-05-08T11:09:29;99519.25;;;20.34;59.83
62548;BME280;48602;45.192;5.722;2023-05-08T11:12:20;99520.88;;;20.37;59.50
62548;BME280;48602;45.192;5.722;2023-05-08T11:25:09;99496.34;;;20.43;60.10
62548;BME280;48602;45.192;5.722;2023-05-08T11:30:39;99494.66;;;20.53;60.10
62548;BME280;48602;45.192;5.722;2023-05-08T11:35:50;99512.56;;;20.52;60.38
62548;BME280;48602;45.192;5.722;2023-05-08T11:38:20;99526.19;;;20.49;60.23
62548;BME280;48602;45.192;5.722;2023-05-08T11:48:33;99506.72;;;20.35;61.85
62548;BME280;48602;45.192;5.722;2023-05-08T11:50:59;99555.03;;;20.33;61.58
62548;BME280;48602;45.192;5.722;2023-05-08T11:53:25;99542.72;;;20.31;61.47
62548;BME280;48602;45.192;5.722;2023-05-08T11:55:54;99518.72;;;20.29;61.49
62548;BME280;48602;45.192;5.722;2023-05-08T11:58:20;99541.38;;;20.25;62.10
62548;BME280;48602;45.192;5.722;2023-05-08T12:00:47;99515.34;;;20.27;62.01
62548;BME280;48602;45.192;5.722;2023-05-08T12:03:19;99522.63;;;20.25;62.04
62548;BME280;48602;45.192;5.722;2023-05-08T12:05:46;99531.50;;;20.26;61.87
62548;BME280;48602;45.192;5.722;2023-05-08T12:08:13;99506.56;;;20.25;62.60
62548;BME280;48602;45.192;5.722;2023-05-08T12:13:17;99504.84;;;20.24;62.10
62548;BME280;48602;45.192;5.722;2023-05-08T12:15:45;99501.09;;;20.27;62.02
62548;BME280;48602;45.192;5.722;2023-05-08T12:18:10;99515.94;;;20.31;61.55
62548;BME280;48602;45.192;5.722;2023-05-08T12:20:36;99531.03;;;20.32;61.55
62548;BME280;48602;45.192;5.722;2023-05-08T12:23:02;99503.63;;;20.28;61.52
62548;BME280;48602;45.192;5.722;2023-05-08T12:25:27;99511.06;;;20.25;61.59
62548;BME280;48602;45.192;5.722;2023-05-08T12:27:53;99512.88;;;20.24;62.17
62548;BME280;48602;45.192;5.722;2023-05-08T12:30:19;99497.78;;;20.23;61.78
62548;BME280;48602;45.192;5.722;2023-05-08T12:32:45;99485.03;;;20.27;62.37
62548;BME280;48602;45.192;5.722;2023-05-08T12:35:12;99505.13;;;20.32;62.04
62548;BME280;48602;45.192;5.722;2023-05-08T12:37:38;99512.50;;;20.29;61.64
62548;BME280;48602;45.192;5.722;2023-05-08T12:40:05;99500.72;;;20.31;61.55
62548;BME280;48602;45.192;5.722;2023-05-08T12:42:43;99479.19;;;20.33;61.17
62548;BME280;48602;45.192;5.722;2023-05-08T12:45:22;99476.09;;;20.39;61.97
62548;BME280;48602;45.192;5.722;2023-05-08T12:47:49;99495.97;;;20.47;61.33
62548;BME280;48602;45.192;5.722;2023-05-08T12:50:16;99502.47;;;20.56;60.96
62548;BME280;48602;45.192;5.722;2023-05-08T12:52:42;99492.78;;;20.66;60.43
62548;BME280;48602;45.192;5.722;2023-05-08T12:55:28;99507.31;;;20.75;60.30
62548;BME280;48602;45.192;5.722;2023-05-08T12:58:07;99490.75;;;20.81;59.09
62548;BME280;48602;45.192;5.722;2023-05-08T13:00:47;99481.28;;;20.88;59.90
62548;BME280;48602;45.192;5.722;2023-05-08T13:03:24;99485.69;;;21.00;59.93
62548;BME280;48602;45.192;5.722;2023-05-08T13:05:51;99485.13;;;21.08;59.53
62548;BME280;48602;45.192;5.722;2023-05-08T13:08:17;99469.75;;;21.10;59.21
62548;BME280;48602;45.192;5.722;2023-05-08T13:10:53;99468.19;;;21.18;58.52
62548;BME280;48602;45.192;5.722;2023-05-08T13:13:23;99470.53;;;21.23;58.68
62548;BME280;48602;45.192;5.722;2023-05-08T13:15:49;99455.94;;;21.27;58.40
62548;BME280;48602;45.192;5.722;2023-05-08T13:18:16;99474.44;;;21.30;58.22
62548;BME280;48602;45.192;5.722;2023-05-08T13:20:42;99450.91;;;21.34;58.38
62548;BME280;48602;45.192;5.722;2023-05-08T13:23:09;99455.19;;;21.36;58.65
62548;BME280;48602;45.192;5.722;2023-05-08T13:25:36;99433.38;;;21.41;58.40
62548;BME280;48602;45.192;5.722;2023-05-08T13:28:02;99436.03;;;21.52;58.52
62548;BME280;48602;45.192;5.722;2023-05-08T13:30:28;99450.03;;;21.67;58.04
62548;BME280;48602;45.192;5.722;2023-05-08T13:32:53;99416.13;;;21.77;58.18
62548;BME280;48602;45.192;5.722;2023-05-08T13:35:19;99435.16;;;21.74;57.61
62548;BME280;48602;45.192;5.722;2023-05-08T13:37:45;99419.44;;;21.69;57.81
62548;BME280;48602;45.192;5.722;2023-05-08T13:40:11;99442.50;;;21.61;57.94
62548;BME280;48602;45.192;5.722;2023-05-08T13:42:37;99434.31;;;21.51;58.47
62548;BME280;48602;45.192;5.722;2023-05-08T13:45:07;99412.38;;;21.57;58.34
62548;BME280;48602;45.192;5.722;2023-05-08T13:47:33;99433.50;;;21.62;57.91
62548;BME280;48602;45.192;5.722;2023-05-08T13:49:59;99409.44;;;21.71;57.33
62548;BME280;48602;45.192;5.722;2023-05-08T13:52:25;99406.97;;;21.79;57.38
62548;BME280;48602;45.192;5.722;2023-05-08T13:54:53;99451.13;;;21.86;56.90